Time;durP1;ratioP1;P1;durP2;ratioP2;P2;SDS_P1;SDS_P2;PMS_P1;PMS_P2;Temp;Humidity;BMP_temperature;BMP_pressure;BME280_temperature;BME280_humidity;BME280_pressure;Samples;Min_cycle;Max_cycle;Signal;HPM_P1;HPM_P2
2022/03/19 00:00:46;;;;;;;;;;;5.20;99.90;;;;;;5115980;28;19928;-69
2022/03/19 00:03:12;;;;;;;;;;;4.40;99.90;;;;;;5098230;28;20445;-67
2022/03/19 00:05:38;;;;;;;;;;;6.20;99.90;;;;;;5116142;28;19923;-70
2022/03/19 00:08:04;;;;;;;;;;;4.30;99.90;;;;;;5115974;28;20294;-67
2022/03/19 00:10:30;;;;;;;;;;;5.50;99.90;;;;;;5115880;28;19945;-67
2022/03/19 00:12:58;;;;;;;;;;;5.20;99.90;;;;;;5115818;28;19924;-66
2022/03/19 00:15:24;;;;;;;;;;;5.70;99.90;;;;;;5115513;28;19924;-69
2022/03/19 00:17:49;;;;;;;;;;;4.90;99.90;;;;;;5098033;28;19924;-67
2022/03/19 00:20:15;;;;;;;;;;;4.40;99.90;;;;;;5088628;28;19955;-68
2022/03/19 00:22:40;;;;;;;;;;;4.30;99.90;;;;;;5097589;28;20007;-67
2022/03/19 00:25:08;;;;;;;;;;;5.20;99.90;;;;;;5115676;28;19924;-68
2022/03/19 00:27:33;;;;;;;;;;;4.30;99.90;;;;;;5097460;28;19948;-71
2022/03/19 00:29:59;;;;;;;;;;;5.90;99.90;;;;;;5115684;28;19924;-70
2022/03/19 00:32:25;;;;;;;;;;;4.30;99.90;;;;;;5115154;28;19981;-68
2022/03/19 00:34:50;;;;;;;;;;;6.10;99.90;;;;;;5115598;28;19924;-67
2022/03/19 00:37:16;;;;;;;;;;;4.30;99.90;;;;;;5097553;28;19923;-70
2022/03/19 00:39:41;;;;;;;;;;;4.70;99.90;;;;;;5114995;28;20301;-68
2022/03/19 00:42:07;;;;;;;;;;;2.90;99.90;;;;;;5114726;28;20294;-67
2022/03/19 00:44:33;;;;;;;;;;;4.50;99.90;;;;;;5115119;28;19973;-67
2022/03/19 00:46:58;;;;;;;;;;;4.20;99.90;;;;;;5115130;28;20363;-67
2022/03/19 00:49:24;;;;;;;;;;;4.60;99.90;;;;;;5115025;28;19924;-67
2022/03/19 00:51:49;;;;;;;;;;;4.70;99.90;;;;;;5114947;28;19928;-68
2022/03/19 00:54:15;;;;;;;;;;;4.50;99.90;;;;;;5115099;28;19979;-67
2022/03/19 00:56:42;;;;;;;;;;;4.20;99.90;;;;;;5115003;28;19923;-70
2022/03/19 00:59:08;;;;;;;;;;;4.30;99.90;;;;;;5115114;28;19924;-69
2022/03/19 01:01:35;;;;;;;;;;;4.30;99.90;;;;;;5114753;28;20413;-68
2022/03/19 01:04:00;;;;;;;;;;;4.30;99.90;;;;;;5115012;28;19923;-68
2022/03/19 01:06:26;;;;;;;;;;;5.30;99.90;;;;;;5097053;28;19924;-67
2022/03/19 01:08:51;;;;;;;;;;;5.50;99.90;;;;;;5096915;28;20018;-67
2022/03/19 01:11:17;;;;;;;;;;;4.60;99.90;;;;;;5114692;28;19927;-70
2022/03/19 01:13:42;;;;;;;;;;;3.10;99.90;;;;;;5114638;28;19924;-67
2022/03/19 01:16:08;;;;;;;;;;;4.90;99.90;;;;;;5096499;28;19931;-68
2022/03/19 01:18:34;;;;;;;;;;;4.30;99.90;;;;;;5114514;28;19930;-67
2022/03/19 01:20:59;;;;;;;;;;;3.80;99.90;;;;;;5114628;28;20378;-71
2022/03/19 01:23:26;;;;;;;;;;;4.20;99.90;;;;;;5114627;28;19969;-66
2022/03/19 01:25:51;;;;;;;;;;;4.50;99.90;;;;;;5114520;28;19928;-67
2022/03/19 01:28:17;;;;;;;;;;;4.30;99.90;;;;;;5114308;28;19968;-68
2022/03/19 01:30:42;;;;;;;;;;;4.30;99.90;;;;;;5093667;28;19924;-70
2022/03/19 01:33:08;;;;;;;;;;;4.30;99.90;;;;;;5093840;28;19924;-68
2022/03/19 01:35:33;;;;;;;;;;;4.30;99.90;;;;;;5076376;28;19967;-67
2022/03/19 01:37:59;;;;;;;;;;;4.30;99.90;;;;;;5076282;28;19925;-67
2022/03/19 01:40:24;;;;;;;;;;;5.10;99.90;;;;;;5093896;28;19924;-68
2022/03/19 01:42:51;;;;;;;;;;;4.30;99.90;;;;;;5093799;28;20303;-68
2022/03/19 01:45:18;;;;;;;;;;;4.30;99.90;;;;;;5093869;28;19924;-67
2022/03/19 01:47:44;;;;;;;;;;;5.00;99.90;;;;;;5093706;28;20379;-71
2022/03/19 01:50:10;;;;;;;;;;;4.40;99.90;;;;;;5093599;28;19931;-68
2022/03/19 01:52:36;;;;;;;;;;;5.50;99.90;;;;;;5093557;28;20401;-67
2022/03/19 01:55:04;;;;;;;;;;;4.30;99.90;;;;;;5093788;28;20390;-67
2022/03/19 01:57:33;;;;;;;;;;;4.30;99.90;;;;;;5093654;28;19928;-70
2022/03/19 01:59:59;;;;;;;;;;;4.30;99.90;;;;;;5093696;28;19931;-68
2022/03/19 02:02:26;;;;;;;;;;;4.30;99.90;;;;;;5093577;28;19924;-68
2022/03/19 02:04:52;;;;;;;;;;;4.30;99.90;;;;;;5093859;28;20014;-68
2022/03/19 02:07:18;;;;;;;;;;;5.40;99.90;;;;;;5109873;28;20417;-67
2022/03/19 02:09:44;;;;;;;;;;;4.30;99.90;;;;;;5093754;28;20014;-70
2022/03/19 02:12:09;;;;;;;;;;;5.00;99.90;;;;;;5093623;28;19924;-67
2022/03/19 02:14:38;;;;;;;;;;;4.30;99.90;;;;;;5075507;28;19925;-67
2022/03/19 02:17:05;;;;;;;;;;;4.30;99.90;;;;;;5093408;28;20428;-70
2022/03/19 02:19:31;;;;;;;;;;;4.30;99.90;;;;;;5075494;28;20022;-73
2022/03/19 02:21:56;;;;;;;;;;;5.10;99.90;;;;;;5093642;28;20015;-69
2022/03/19 02:27:07;;;;;;;;;;;4.30;99.90;;;;;;5093498;28;20349;-69
2022/03/19 02:29:32;;;;;;;;;;;4.60;99.90;;;;;;5075275;28;19963;-69
2022/03/19 02:31:59;;;;;;;;;;;4.30;99.90;;;;;;5075027;28;19989;-68
2022/03/19 02:34:25;;;;;;;;;;;4.30;99.90;;;;;;5093630;28;19924;-70
2022/03/19 02:36:51;;;;;;;;;;;5.80;99.90;;;;;;5093501;28;19932;-70
2022/03/19 02:39:18;;;;;;;;;;;4.30;99.90;;;;;;5075446;28;19924;-71
2022/03/19 02:41:44;;;;;;;;;;;4.40;99.90;;;;;;5075392;28;19928;-70
2022/03/19 02:44:10;;;;;;;;;;;4.30;99.90;;;;;;5093262;28;20302;-70
2022/03/19 02:46:40;;;;;;;;;;;4.70;99.90;;;;;;5093243;28;19969;-70
2022/03/19 02:49:06;;;;;;;;;;;5.10;99.90;;;;;;5093489;28;19924;-68
2022/03/19 02:51:33;;;;;;;;;;;4.20;99.90;;;;;;5093307;28;19935;-69
2022/03/19 02:53:58;;;;;;;;;;;5.30;99.90;;;;;;5108976;28;20268;-72
2022/03/19 02:56:24;;;;;;;;;;;4.20;99.90;;;;;;5093200;28;19939;-70
2022/03/19 02:58:49;;;;;;;;;;;3.10;99.90;;;;;;5093107;28;19931;-69
2022/03/19 03:01:15;;;;;;;;;;;4.50;99.90;;;;;;5075238;28;20393;-71
2022/03/19 03:03:41;;;;;;;;;;;4.20;99.90;;;;;;5094022;28;20290;-73
2022/03/19 03:06:06;;;;;;;;;;;4.20;99.90;;;;;;5078753;28;19924;-70
2022/03/19 03:08:32;;;;;;;;;;;4.70;99.90;;;;;;5096895;28;20488;-70
2022/03/19 03:10:58;;;;;;;;;;;4.90;99.90;;;;;;5096698;28;20413;-70
2022/03/19 03:13:24;;;;;;;;;;;4.40;99.90;;;;;;5078736;28;19924;-71
2022/03/19 03:15:50;;;;;;;;;;;4.20;99.90;;;;;;5096417;28;19931;-69
2022/03/19 03:18:15;;;;;;;;;;;4.60;99.90;;;;;;5078414;28;19931;-70
2022/03/19 03:20:41;;;;;;;;;;;4.90;99.90;;;;;;5078417;28;19930;-72
2022/03/19 03:23:06;;;;;;;;;;;4.10;99.90;;;;;;5096376;28;20023;-69
2022/03/19 03:25:32;;;;;;;;;;;4.10;99.90;;;;;;5096310;28;19960;-72
2022/03/19 03:27:58;;;;;;;;;;;4.80;99.90;;;;;;5096322;28;19931;-70
2022/03/19 03:30:23;;;;;;;;;;;4.60;99.90;;;;;;5078306;28;19924;-69
2022/03/19 03:32:49;;;;;;;;;;;4.70;99.90;;;;;;5095928;28;19923;-70
2022/03/19 03:35:15;;;;;;;;;;;4.10;99.90;;;;;;5096425;28;19938;-69
2022/03/19 03:37:40;;;;;;;;;;;5.30;99.90;;;;;;5096305;28;19967;-70
2022/03/19 03:40:07;;;;;;;;;;;3.70;99.90;;;;;;5096161;28;19924;-70
2022/03/19 03:42:33;;;;;;;;;;;4.00;99.90;;;;;;5078312;28;19934;-70
2022/03/19 03:44:58;;;;;;;;;;;4.90;99.90;;;;;;5078120;28;20011;-71
2022/03/19 03:47:27;;;;;;;;;;;4.00;99.90;;;;;;5078164;28;19924;-69
2022/03/19 03:49:53;;;;;;;;;;;4.00;99.90;;;;;;5077974;28;19928;-69
2022/03/19 03:52:19;;;;;;;;;;;5.30;99.90;;;;;;5095988;28;20338;-69
2022/03/19 03:54:45;;;;;;;;;;;4.70;99.90;;;;;;5096019;28;19931;-69
2022/03/19 03:57:11;;;;;;;;;;;4.10;99.90;;;;;;5095800;28;20383;-69
2022/03/19 03:59:37;;;;;;;;;;;5.20;99.90;;;;;;5095581;28;19924;-69
2022/03/19 04:02:02;;;;;;;;;;;4.00;99.90;;;;;;5061067;28;19924;-70
2022/03/19 04:04:28;;;;;;;;;;;3.90;99.90;;;;;;5095518;28;20388;-70
2022/03/19 04:06:53;;;;;;;;;;;4.10;99.90;;;;;;5077964;28;19930;-71
2022/03/19 04:09:19;;;;;;;;;;;3.90;99.90;;;;;;5095654;28;19924;-72
2022/03/19 04:11:45;;;;;;;;;;;5.30;99.90;;;;;;5111557;28;19924;-71
2022/03/19 04:14:10;;;;;;;;;;;3.90;99.90;;;;;;5095306;28;19924;-69
2022/03/19 04:16:37;;;;;;;;;;;4.10;99.90;;;;;;5095354;28;19931;-71
2022/03/19 04:19:03;;;;;;;;;;;3.90;99.90;;;;;;5095262;28;19926;-70
2022/03/19 04:21:28;;;;;;;;;;;4.20;99.90;;;;;;5077504;28;19924;-71
2022/03/19 04:23:54;;;;;;;;;;;3.70;99.90;;;;;;5095360;28;19928;-69
2022/03/19 04:26:19;;;;;;;;;;;4.00;99.90;;;;;;5077522;28;20010;-69
2022/03/19 04:28:45;;;;;;;;;;;3.70;99.90;;;;;;5076860;28;19987;-72
2022/03/19 04:31:10;;;;;;;;;;;3.60;99.90;;;;;;5095034;28;19924;-69
2022/03/19 04:33:36;;;;;;;;;;;5.40;99.90;;;;;;5094952;28;20418;-69
2022/03/19 04:38:46;;;;;;;;;;;3.60;99.90;;;;;;5095038;28;19931;-70
2022/03/19 04:41:12;;;;;;;;;;;4.20;99.90;;;;;;5095008;28;20294;-69
2022/03/19 04:43:38;;;;;;;;;;;3.60;99.90;;;;;;5094875;28;20339;-69
2022/03/19 04:46:04;;;;;;;;;;;3.60;99.90;;;;;;5094841;28;20013;-70
2022/03/19 04:48:30;;;;;;;;;;;3.60;99.90;;;;;;5094752;28;19924;-69
2022/03/19 04:50:56;;;;;;;;;;;3.60;99.90;;;;;;5094804;28;19928;-70
2022/03/19 04:53:21;;;;;;;;;;;4.60;99.90;;;;;;5094833;28;19989;-73
2022/03/19 04:55:47;;;;;;;;;;;5.10;99.90;;;;;;5094695;28;19930;-70
2022/03/19 04:58:13;;;;;;;;;;;3.90;99.90;;;;;;5094614;28;19924;-70
2022/03/19 05:00:38;;;;;;;;;;;4.40;99.90;;;;;;5094605;28;20018;-69
2022/03/19 05:03:07;;;;;;;;;;;3.50;99.90;;;;;;5094414;28;19947;-70
2022/03/19 05:05:33;;;;;;;;;;;3.50;99.90;;;;;;5076502;28;19928;-70
2022/03/19 05:07:59;;;;;;;;;;;3.40;99.90;;;;;;5076310;28;19924;-70
2022/03/19 05:13:09;;;;;;;;;;;5.10;99.90;;;;;;5094266;28;19974;-69
2022/03/19 05:15:35;;;;;;;;;;;3.40;99.90;;;;;;5094173;28;19976;-69
2022/03/19 05:18:01;;;;;;;;;;;3.40;99.90;;;;;;5094173;28;19927;-72
2022/03/19 05:20:26;;;;;;;;;;;4.30;99.90;;;;;;5094325;28;19924;-69
2022/03/19 05:22:52;;;;;;;;;;;3.40;99.90;;;;;;5076488;28;19928;-69
2022/03/19 05:25:17;;;;;;;;;;;3.40;99.90;;;;;;5094191;28;19924;-70
2022/03/19 05:27:43;;;;;;;;;;;4.20;99.90;;;;;;5075541;28;20042;-70
2022/03/19 05:30:08;;;;;;;;;;;3.40;99.90;;;;;;5094225;28;19928;-69
2022/03/19 05:32:35;;;;;;;;;;;3.40;99.90;;;;;;5093763;28;20314;-73
2022/03/19 05:35:01;;;;;;;;;;;3.40;99.90;;;;;;5094148;28;19928;-69
2022/03/19 05:37:27;;;;;;;;;;;3.90;99.90;;;;;;5094081;28;19924;-69
2022/03/19 05:39:55;;;;;;;;;;;3.40;99.90;;;;;;5094037;28;19970;-70
2022/03/19 05:42:21;;;;;;;;;;;3.60;99.90;;;;;;5093973;28;20022;-69
2022/03/19 05:44:47;;;;;;;;;;;4.50;99.90;;;;;;5076091;28;19946;-70
2022/03/19 05:47:12;;;;;;;;;;;3.40;99.90;;;;;;5076068;28;20367;-69
2022/03/19 05:49:38;;;;;;;;;;;4.50;99.90;;;;;;5093930;28;19974;-71
2022/03/19 05:52:03;;;;;;;;;;;4.10;99.90;;;;;;5076007;28;20375;-71
2022/03/19 05:54:29;;;;;;;;;;;3.40;99.90;;;;;;5093851;28;19986;-70
2022/03/19 05:56:54;;;;;;;;;;;3.40;99.90;;;;;;5075871;28;19924;-68
2022/03/19 05:59:21;;;;;;;;;;;3.40;99.90;;;;;;5093777;28;19924;-69
2022/03/19 06:01:46;;;;;;;;;;;4.40;99.90;;;;;;5109655;28;19924;-70
2022/03/19 06:04:12;;;;;;;;;;;3.80;99.90;;;;;;5075925;28;19951;-69
2022/03/19 06:06:38;;;;;;;;;;;3.40;99.90;;;;;;5093908;28;20020;-70
2022/03/19 06:09:03;;;;;;;;;;;3.90;99.90;;;;;;5075654;28;20390;-70
2022/03/19 06:11:29;;;;;;;;;;;3.80;99.90;;;;;;5075628;28;20027;-69
2022/03/19 06:13:55;;;;;;;;;;;3.80;99.90;;;;;;5109614;28;19928;-73
2022/03/19 06:16:20;;;;;;;;;;;3.40;99.90;;;;;;5093298;28;19932;-70
2022/03/19 06:18:49;;;;;;;;;;;3.80;99.90;;;;;;5075704;28;19924;-69
2022/03/19 06:21:16;;;;;;;;;;;3.40;99.90;;;;;;5093791;28;20308;-72
2022/03/19 06:23:42;;;;;;;;;;;4.80;99.90;;;;;;5075936;28;19928;-69
2022/03/19 06:26:07;;;;;;;;;;;3.50;99.90;;;;;;5109521;28;19932;-68
2022/03/19 06:28:33;;;;;;;;;;;3.80;99.90;;;;;;5093401;28;19935;-73
2022/03/19 06:30:58;;;;;;;;;;;5.50;99.90;;;;;;5091987;28;19928;-69
2022/03/19 06:33:24;;;;;;;;;;;3.70;99.90;;;;;;5075407;28;19931;-71
2022/03/19 06:38:34;;;;;;;;;;;3.50;99.90;;;;;;5093957;28;20000;-69
2022/03/19 06:40:59;;;;;;;;;;;5.00;99.90;;;;;;5079451;28;19924;-69
2022/03/19 06:43:26;;;;;;;;;;;3.60;99.90;;;;;;5097142;28;19924;-71
2022/03/19 06:45:51;;;;;;;;;;;4.30;99.90;;;;;;5097034;28;20375;-70
2022/03/19 06:48:17;;;;;;;;;;;4.20;99.90;;;;;;5096954;28;19935;-69
2022/03/19 06:50:42;;;;;;;;;;;3.70;99.90;;;;;;5097153;28;19931;-69
2022/03/19 06:53:08;;;;;;;;;;;3.80;99.90;;;;;;5097114;28;19924;-71
2022/03/19 06:55:33;;;;;;;;;;;3.80;99.90;;;;;;5097091;28;20332;-69
2022/03/19 06:57:59;;;;;;;;;;;3.90;99.90;;;;;;5097026;28;20402;-68
2022/03/19 07:00:25;;;;;;;;;;;4.60;99.90;;;;;;5078509;28;19978;-69
2022/03/19 07:02:54;;;;;;;;;;;4.00;99.90;;;;;;5078665;28;19924;-69
2022/03/19 07:05:24;;;;;;;;;;;4.10;99.90;;;;;;5079146;28;19924;-69
2022/03/19 07:07:50;;;;;;;;;;;6.10;99.90;;;;;;5096793;28;19928;-68
2022/03/19 07:10:18;;;;;;;;;;;4.20;99.90;;;;;;5096757;28;19924;-69
2022/03/19 07:12:43;;;;;;;;;;;4.20;99.90;;;;;;5078359;28;19970;-70
2022/03/19 07:15:13;;;;;;;;;;;4.40;99.90;;;;;;5096542;28;20018;-69
2022/03/19 07:17:39;;;;;;;;;;;4.40;99.90;;;;;;5096400;28;19977;-69
2022/03/19 07:20:05;;;;;;;;;;;4.40;99.90;;;;;;5096567;28;20345;-70
2022/03/19 07:22:46;;;;;;;;;;;4.50;99.90;;;;;;5096373;28;19924;-69
2022/03/19 07:25:12;;;;;;;;;;;4.60;99.90;;;;;;5096453;28;19982;-69
2022/03/19 07:27:37;;;;;;;;;;;4.70;99.90;;;;;;5078528;28;20325;-69
2022/03/19 07:30:03;;;;;;;;;;;5.50;99.90;;;;;;5077610;28;20405;-69
2022/03/19 07:32:29;;;;;;;;;;;4.80;99.90;;;;;;5077626;28;20019;-70
2022/03/19 07:34:55;;;;;;;;;;;4.80;99.90;;;;;;5096350;28;19924;-69
2022/03/19 07:37:20;;;;;;;;;;;4.90;99.90;;;;;;5078295;28;19924;-70
2022/03/19 07:39:46;;;;;;;;;;;5.00;99.90;;;;;;5096269;28;19924;-69
2022/03/19 07:42:11;;;;;;;;;;;5.00;99.90;;;;;;5096087;28;19935;-67
2022/03/19 07:44:37;;;;;;;;;;;5.10;99.90;;;;;;5095981;28;19967;-67
2022/03/19 07:47:02;;;;;;;;;;;6.20;99.90;;;;;;5095635;28;19925;-67
2022/03/19 07:49:28;;;;;;;;;;;5.20;99.90;;;;;;5095823;28;19931;-69
2022/03/19 07:51:55;;;;;;;;;;;5.20;99.90;;;;;;5095918;28;19947;-67
2022/03/19 07:54:27;;;;;;;;;;;5.60;99.90;;;;;;5078168;28;20011;-67
2022/03/19 07:56:53;;;;;;;;;;;5.30;99.90;;;;;;5095665;28;19931;-69
2022/03/19 07:59:21;;;;;;;;;;;5.40;99.90;;;;;;5095622;28;19924;-70
2022/03/19 08:01:49;;;;;;;;;;;6.90;99.90;;;;;;5095732;28;19928;-69
2022/03/19 08:04:14;;;;;;;;;;;6.40;99.90;;;;;;5095540;28;19931;-71
2022/03/19 08:06:40;;;;;;;;;;;5.60;99.90;;;;;;5095562;28;19924;-69
2022/03/19 08:09:07;;;;;;;;;;;6.70;99.90;;;;;;5095468;28;20298;-69
2022/03/19 08:11:33;;;;;;;;;;;5.70;99.90;;;;;;5095436;28;19935;-70
2022/03/19 08:13:59;;;;;;;;;;;5.80;99.90;;;;;;5077158;28;19924;-69
2022/03/19 08:16:25;;;;;;;;;;;5.90;99.90;;;;;;5111447;28;19924;-69
2022/03/19 08:18:50;;;;;;;;;;;6.70;99.90;;;;;;5077003;28;19973;-69
2022/03/19 08:21:16;;;;;;;;;;;6.20;99.90;;;;;;5095421;28;20287;-69
2022/03/19 08:23:41;;;;;;;;;;;6.30;99.90;;;;;;5077207;28;20375;-70
2022/03/19 08:26:07;;;;;;;;;;;6.60;99.90;;;;;;5095274;28;20268;-69
2022/03/19 08:28:42;;;;;;;;;;;6.20;99.90;;;;;;5095153;28;19963;-70
2022/03/19 08:31:07;;;;;;;;;;;6.30;99.90;;;;;;5094969;28;19950;-71
2022/03/19 08:33:33;;;;;;;;;;;6.40;99.90;;;;;;5095139;28;19928;-69
2022/03/19 08:35:58;;;;;;;;;;;6.70;99.90;;;;;;5095183;28;20010;-69
2022/03/19 08:41:08;;;;;;;;;;;6.00;99.90;;;;;;5095016;28;19931;-68
2022/03/19 08:43:33;;;;;;;;;;;6.60;99.90;;;;;;5094420;28;19924;-72
2022/03/19 08:45:59;;;;;;;;;;;6.70;99.90;;;;;;5095011;28;19924;-68
2022/03/19 08:48:25;;;;;;;;;;;7.10;99.90;;;;;;5094832;28;19924;-70
2022/03/19 08:50:50;;;;;;;;;;;6.90;99.90;;;;;;5094642;28;20304;-68
2022/03/19 08:53:16;;;;;;;;;;;7.60;99.90;;;;;;5094723;28;20361;-68
2022/03/19 08:55:42;;;;;;;;;;;7.00;99.90;;;;;;5094453;28;20414;-67
2022/03/19 08:58:08;;;;;;;;;;;7.10;99.90;;;;;;5094626;28;19924;-68
2022/03/19 09:00:34;;;;;;;;;;;7.30;99.90;;;;;;5094143;28;20011;-68
2022/03/19 09:03:00;;;;;;;;;;;7.20;99.90;;;;;;5094036;28;19924;-69
2022/03/19 09:05:27;;;;;;;;;;;7.30;99.90;;;;;;5094265;28;19985;-68
2022/03/19 09:07:53;;;;;;;;;;;7.30;99.90;;;;;;5094334;28;19928;-69
2022/03/19 09:10:18;;;;;;;;;;;7.40;99.90;;;;;;5094424;28;19970;-68
2022/03/19 09:12:44;;;;;;;;;;;7.40;99.90;;;;;;5094275;28;19924;-67
2022/03/19 09:15:11;;;;;;;;;;;7.60;99.90;;;;;;5094090;28;20015;-67
2022/03/19 09:17:37;;;;;;;;;;;8.30;99.90;;;;;;5094066;28;20383;-67
2022/03/19 09:20:03;;;;;;;;;;;7.60;99.90;;;;;;5094406;28;19928;-68
2022/03/19 09:22:29;;;;;;;;;;;7.70;99.90;;;;;;5110139;28;20126;-67
2022/03/19 09:24:55;;;;;;;;;;;8.80;99.90;;;;;;5094013;28;20332;-67
2022/03/19 09:27:21;;;;;;;;;;;7.80;99.90;;;;;;5094081;28;19924;-68
2022/03/19 09:29:47;;;;;;;;;;;7.90;99.90;;;;;;5093654;28;19927;-68
2022/03/19 09:32:13;;;;;;;;;;;8.00;99.90;;;;;;5093892;28;19939;-68
2022/03/19 09:34:39;;;;;;;;;;;8.70;99.90;;;;;;5075962;28;19924;-68
2022/03/19 09:37:05;;;;;;;;;;;8.50;99.90;;;;;;5094053;28;19930;-68
2022/03/19 09:39:30;;;;;;;;;;;8.90;99.90;;;;;;5093997;28;19924;-68
2022/03/19 09:41:56;;;;;;;;;;;8.30;99.90;;;;;;5093919;28;19967;-68
2022/03/19 09:44:25;;;;;;;;;;;7.80;99.90;;;;;;5075548;28;19928;-71
2022/03/19 09:46:51;;;;;;;;;;;8.40;99.90;;;;;;5094150;28;19935;-68
2022/03/19 09:49:17;;;;;;;;;;;8.80;99.90;;;;;;5093893;28;20324;-68
2022/03/19 09:51:49;;;;;;;;;;;8.90;99.90;;;;;;5075687;28;19924;-68
2022/03/19 09:54:15;;;;;;;;;;;8.70;99.90;;;;;;5093865;28;19924;-72
2022/03/19 09:56:40;;;;;;;;;;;8.70;99.90;;;;;;5093703;28;19969;-69
2022/03/19 09:59:06;;;;;;;;;;;8.80;99.90;;;;;;5093617;28;19924;-70
2022/03/19 10:01:33;;;;;;;;;;;10.40;99.90;;;;;;5093483;28;19935;-68
2022/03/19 10:04:03;;;;;;;;;;;10.10;99.90;;;;;;5075898;28;19924;-67
2022/03/19 10:09:26;;;;;;;;;;;7.90;99.90;;;;;;5031218;28;19925;-68
2022/03/19 10:11:52;;;;;;;;;;;9.10;99.90;;;;;;5014298;28;19929;-69
2022/03/19 10:14:21;;;;;;;;;;;9.20;99.90;;;;;;5034812;28;19925;-72
2022/03/19 10:16:48;;;;;;;;;;;9.20;99.90;;;;;;5019114;28;20002;-68
2022/03/19 10:19:14;;;;;;;;;;;9.30;99.90;;;;;;5018531;28;19929;-71
2022/03/19 10:21:42;;;;;;;;;;;9.40;99.20;;;;;;5035240;28;20023;-69
2022/03/19 10:24:19;;;;;;;;;;;9.60;99.90;;;;;;5035268;28;19925;-70
2022/03/19 10:26:46;;;;;;;;;;;9.50;99.90;;;;;;5035103;28;20076;-69
2022/03/19 10:29:12;;;;;;;;;;;9.80;99.40;;;;;;5035870;28;20392;-71
2022/03/19 10:31:39;;;;;;;;;;;9.50;97.90;;;;;;5054777;28;20023;-68
2022/03/19 10:34:05;;;;;;;;;;;10.40;99.90;;;;;;5054955;28;19925;-67
2022/03/19 10:36:32;;;;;;;;;;;9.80;99.90;;;;;;5038518;28;19979;-71
2022/03/19 10:38:58;;;;;;;;;;;9.90;99.90;;;;;;5054894;28;19924;-68
2022/03/19 10:41:24;;;;;;;;;;;10.00;99.90;;;;;;5054830;28;19929;-68
2022/03/19 10:43:49;;;;;;;;;;;10.10;99.90;;;;;;5055199;28;19925;-68
2022/03/19 10:46:34;;;;;;;;;;;10.20;98.60;;;;;;5117409;28;19941;-70
2022/03/19 10:49:00;;;;;;;;;;;10.30;99.90;;;;;;5117449;28;20391;-70
2022/03/19 10:51:29;;;;;;;;;;;10.50;99.90;;;;;;5117386;28;19930;-68
2022/03/19 10:53:58;;;;;;;;;;;10.40;99.90;;;;;;5117232;28;19924;-68
2022/03/19 10:56:24;;;;;;;;;;;10.50;88.40;;;;;;5117435;28;19928;-70
2022/03/19 10:58:49;;;;;;;;;;;10.60;99.90;;;;;;5117396;28;20023;-69
2022/03/19 11:01:15;;;;;;;;;;;10.70;90.90;;;;;;5099167;28;19931;-68
2022/03/19 11:03:42;;;;;;;;;;;10.70;91.60;;;;;;5117284;28;19924;-69
2022/03/19 11:06:09;;;;;;;;;;;10.80;87.90;;;;;;5117186;28;20010;-68
2022/03/19 11:08:37;;;;;;;;;;;10.80;89.90;;;;;;5117039;28;20516;-69
2022/03/19 11:11:07;;;;;;;;;;;10.90;86.00;;;;;;5099232;28;19931;-69
2022/03/19 11:13:37;;;;;;;;;;;11.00;76.70;;;;;;5117238;28;19935;-68
2022/03/19 11:16:03;;;;;;;;;;;10.90;75.00;;;;;;5116981;28;19924;-68
2022/03/19 11:18:29;;;;;;;;;;;10.90;73.80;;;;;;5098785;28;20010;-71
2022/03/19 11:20:55;;;;;;;;;;;10.90;72.90;;;;;;5116921;28;19977;-68
2022/03/19 11:23:26;;;;;;;;;;;11.60;76.30;;;;;;5116783;28;19930;-71
2022/03/19 11:25:56;;;;;;;;;;;11.00;72.60;;;;;;5097456;28;19950;-69
2022/03/19 11:28:22;;;;;;;;;;;11.10;72.60;;;;;;5117060;28;19997;-70
2022/03/19 11:31:03;;;;;;;;;;;11.10;69.80;;;;;;5083508;28;19947;-69
2022/03/19 11:33:32;;;;;;;;;;;11.00;70.20;;;;;;5112365;28;19967;-69
2022/03/19 11:36:03;;;;;;;;;;;11.10;70.00;;;;;;5096004;28;19970;-69
2022/03/19 11:38:30;;;;;;;;;;;11.20;72.20;;;;;;5078487;28;20389;-68
2022/03/19 11:40:56;;;;;;;;;;;11.20;70.40;;;;;;5096148;28;19990;-68
2022/03/19 11:43:24;;;;;;;;;;;11.30;68.30;;;;;;5096116;28;19946;-69
2022/03/19 11:45:56;;;;;;;;;;;11.30;67.70;;;;;;5095904;28;20019;-69
2022/03/19 11:48:41;;;;;;;;;;;11.30;69.40;;;;;;5095931;28;19928;-70
2022/03/19 11:51:22;;;;;;;;;;;11.30;68.50;;;;;;5077980;28;19939;-68
2022/03/19 11:54:12;;;;;;;;;;;11.30;69.60;;;;;;5077861;28;19924;-68
2022/03/19 11:56:40;;;;;;;;;;;11.30;66.80;;;;;;5095823;28;19931;-69
2022/03/19 11:59:21;;;;;;;;;;;11.40;67.90;;;;;;5077801;28;19928;-68
2022/03/19 12:01:54;;;;;;;;;;;11.40;62.60;;;;;;5095549;28;20375;-68
2022/03/19 12:04:21;;;;;;;;;;;11.40;63.30;;;;;;5095739;28;19975;-68
2022/03/19 12:06:54;;;;;;;;;;;11.30;63.70;;;;;;5077856;28;19970;-68
2022/03/19 12:09:32;;;;;;;;;;;11.40;63.50;;;;;;5095557;28;20371;-71
2022/03/19 12:12:07;;;;;;;;;;;11.50;64.00;;;;;;5095410;28;19924;-68
2022/03/19 12:14:33;;;;;;;;;;;11.60;63.70;;;;;;5095389;28;19925;-69
2022/03/19 12:17:14;;;;;;;;;;;11.60;67.10;;;;;;5095140;28;20302;-69
2022/03/19 12:19:58;;;;;;;;;;;11.70;63.40;;;;;;5095094;28;19971;-68
2022/03/19 12:22:39;;;;;;;;;;;11.60;61.40;;;;;;5095228;28;19924;-69
2022/03/19 12:25:10;;;;;;;;;;;11.60;62.90;;;;;;5094401;28;20345;-71
2022/03/19 12:27:36;;;;;;;;;;;11.60;63.50;;;;;;5094894;28;19977;-68
2022/03/19 12:30:02;;;;;;;;;;;12.00;64.60;;;;;;5094695;28;19928;-72
2022/03/19 12:32:28;;;;;;;;;;;11.80;63.20;;;;;;5094627;28;19924;-69
2022/03/19 12:35:00;;;;;;;;;;;11.90;64.50;;;;;;5095055;28;19924;-70
2022/03/19 12:37:25;;;;;;;;;;;11.80;62.20;;;;;;5077153;28;19924;-72
2022/03/19 12:40:01;;;;;;;;;;;10.70;62.20;;;;;;5076961;28;19924;-68
2022/03/19 12:42:31;;;;;;;;;;;11.70;61.40;;;;;;5109917;28;19924;-68
2022/03/19 12:44:59;;;;;;;;;;;11.70;63.20;;;;;;5094453;28;20466;-68
2022/03/19 12:47:26;;;;;;;;;;;11.70;62.00;;;;;;5094869;28;20358;-69
2022/03/19 12:49:54;;;;;;;;;;;11.80;61.30;;;;;;5094428;28;19979;-69
2022/03/19 12:52:20;;;;;;;;;;;11.70;62.70;;;;;;5105676;28;20291;-68
2022/03/19 12:54:46;;;;;;;;;;;11.70;62.90;;;;;;5112282;28;19924;-69
2022/03/19 12:57:14;;;;;;;;;;;11.70;61.60;;;;;;5114708;28;19981;-72
2022/03/19 12:59:50;;;;;;;;;;;12.20;62.00;;;;;;5114487;28;19924;-68
2022/03/19 13:02:16;;;;;;;;;;;11.60;61.40;;;;;;5114982;28;20318;-69
2022/03/19 13:04:43;;;;;;;;;;;11.60;62.20;;;;;;5096880;28;19934;-69
2022/03/19 13:07:08;;;;;;;;;;;11.70;63.50;;;;;;5114614;28;19928;-69
2022/03/19 13:09:35;;;;;;;;;;;11.60;62.10;;;;;;5096750;28;19924;-69
2022/03/19 13:12:03;;;;;;;;;;;11.60;63.10;;;;;;5096541;28;19924;-68
2022/03/19 13:14:46;;;;;;;;;;;11.60;63.00;;;;;;5114466;28;19924;-71
2022/03/19 13:17:12;;;;;;;;;;;11.60;64.10;;;;;;5096716;28;19994;-70
2022/03/19 13:19:37;;;;;;;;;;;11.60;62.90;;;;;;5114555;28;20020;-70
2022/03/19 13:22:03;;;;;;;;;;;11.50;62.30;;;;;;5114416;28;19923;-70
2022/03/19 13:24:33;;;;;;;;;;;11.50;62.50;;;;;;5113881;28;20374;-69
2022/03/19 13:26:59;;;;;;;;;;;11.50;63.90;;;;;;5113934;28;19923;-70
2022/03/19 13:29:26;;;;;;;;;;;11.50;62.80;;;;;;5114329;28;20302;-68
2022/03/19 13:31:53;;;;;;;;;;;11.60;62.20;;;;;;5132897;27;19927;-69
2022/03/19 13:34:24;;;;;;;;;;;11.50;61.90;;;;;;5134813;27;20328;-68
2022/03/19 13:36:53;;;;;;;;;;;11.50;62.30;;;;;;5116605;27;19927;-68
2022/03/19 13:39:21;;;;;;;;;;;11.50;61.50;;;;;;5134764;27;20018;-69
2022/03/19 13:41:47;;;;;;;;;;;11.50;61.90;;;;;;5134683;27;19923;-72
2022/03/19 13:44:25;;;;;;;;;;;11.50;62.40;;;;;;5134922;27;19923;-69
2022/03/19 13:47:10;;;;;;;;;;;11.60;62.10;;;;;;5134125;27;19923;-70
2022/03/19 13:49:38;;;;;;;;;;;11.60;61.20;;;;;;5134735;27;19924;-70
2022/03/19 13:52:05;;;;;;;;;;;11.60;60.50;;;;;;5134669;27;19927;-69
2022/03/19 13:54:43;;;;;;;;;;;11.60;61.70;;;;;;5134601;27;20328;-70
2022/03/19 13:57:11;;;;;;;;;;;11.60;61.70;;;;;;5134797;27;20300;-69
2022/03/19 14:00:01;;;;;;;;;;;11.70;61.40;;;;;;5116496;28;20006;-68
2022/03/19 14:02:26;;;;;;;;;;;11.70;61.50;;;;;;5134609;28;19969;-67
2022/03/19 14:04:52;;;;;;;;;;;11.70;60.00;;;;;;5134464;28;20290;-69
2022/03/19 14:07:29;;;;;;;;;;;11.60;61.40;;;;;;5134762;28;20435;-67
2022/03/19 14:09:57;;;;;;;;;;;11.60;61.40;;;;;;5134530;28;19981;-71
2022/03/19 14:12:36;;;;;;;;;;;11.60;60.80;;;;;;5134495;28;19927;-69
2022/03/19 14:15:03;;;;;;;;;;;11.50;61.60;;;;;;5134277;28;19982;-69
2022/03/19 14:17:48;;;;;;;;;;;11.50;61.30;;;;;;5116110;28;20298;-69
2022/03/19 14:20:15;;;;;;;;;;;11.60;60.20;;;;;;5116478;28;19931;-68
2022/03/19 14:22:41;;;;;;;;;;;11.50;60.00;;;;;;5134422;28;19924;-71
2022/03/19 14:25:07;;;;;;;;;;;11.60;59.50;;;;;;5134483;28;19931;-69
2022/03/19 14:27:32;;;;;;;;;;;11.60;59.00;;;;;;5134137;28;19928;-69
2022/03/19 14:29:58;;;;;;;;;;;11.60;58.50;;;;;;5134104;28;19962;-71
2022/03/19 14:32:23;;;;;;;;;;;11.60;58.70;;;;;;5115736;28;20002;-72
2022/03/19 14:34:49;;;;;;;;;;;11.70;57.70;;;;;;5134352;28;19923;-70
2022/03/19 14:37:15;;;;;;;;;;;11.70;58.00;;;;;;5134418;28;20310;-68
2022/03/19 14:39:41;;;;;;;;;;;11.70;59.10;;;;;;5134360;28;19923;-69
2022/03/19 14:42:07;;;;;;;;;;;11.70;57.80;;;;;;5134283;28;19969;-68